createdAt,value
2022-11-26T00:01:40.356Z,99995.55
2022-11-26T00:04:42.098Z,99997.33
2022-11-26T00:07:44.976Z,100000.59
2022-11-26T00:10:49.806Z,100002.05
2022-11-26T00:13:51.539Z,100008.20
2022-11-26T00:16:53.354Z,100012.29
2022-11-26T00:19:55.034Z,100007.31
2022-11-26T00:22:58.637Z,100010.02
2022-11-26T00:26:02.718Z,100005.96
2022-11-26T00:29:04.440Z,100009.61
2022-11-26T00:32:10.887Z,100011.81
2022-11-26T00:35:13.038Z,100013.52
2022-11-26T00:38:17.568Z,100018.17
2022-11-26T00:41:23.150Z,100019.13
2022-11-26T00:44:25.922Z,100017.90
2022-11-26T00:47:27.582Z,100018.58
2022-11-26T00:50:30.269Z,100018.45
2022-11-26T00:53:32.167Z,100023.74
2022-11-26T00:56:39.443Z,100027.42
2022-11-26T00:59:41.096Z,100028.75
2022-11-26T01:02:52.652Z,100028.20
2022-11-26T01:05:56.748Z,100032.15
2022-11-26T01:08:58.446Z,100030.98
2022-11-26T01:12:00.120Z,100033.27
2022-11-26T01:15:01.961Z,100030.48
2022-11-26T01:18:15.104Z,100033.38
2022-11-26T01:21:17.662Z,100032.55
2022-11-26T01:24:22.632Z,100036.48
2022-11-26T01:27:24.172Z,100036.30
2022-11-26T01:30:30.694Z,100036.23
2022-11-26T01:33:32.404Z,100042.49
2022-11-26T01:36:38.149Z,100043.20
2022-11-26T01:39:40.135Z,100043.33
2022-11-26T01:42:44.240Z,100046.70
2022-11-26T01:45:46.144Z,100041.13
2022-11-26T01:48:49.449Z,100042.77
2022-11-26T01:52:01.828Z,100038.95
2022-11-26T01:55:03.881Z,100040.38
2022-11-26T01:58:08.119Z,100042.56
2022-11-26T02:01:10.305Z,100046.09
2022-11-26T02:04:16.158Z,100052.64
2022-11-26T02:07:17.989Z,100057.92
2022-11-26T02:10:19.764Z,100056.66
2022-11-26T02:13:22.067Z,100059.91
2022-11-26T02:16:46.321Z,100067.86
2022-11-26T02:20:22.588Z,100064.89
2022-11-26T02:23:58.857Z,100068.60
2022-11-26T02:27:14.219Z,100068.52
2022-11-26T02:30:17.545Z,100073.89
2022-11-26T02:33:31.373Z,100072.36
2022-11-26T02:36:45.839Z,100072.10
2022-11-26T02:39:47.597Z,100066.72
2022-11-26T02:42:49.431Z,100066.85
2022-11-26T02:45:55.887Z,100065.33
2022-11-26T02:48:57.775Z,100061.40
2022-11-26T02:52:01.719Z,100065.59
2022-11-26T02:55:06.005Z,100067.05
2022-11-26T02:58:07.863Z,100067.34
2022-11-26T03:01:13.116Z,100069.85
2022-11-26T03:04:20.789Z,100074.04
2022-11-26T03:07:22.924Z,100069.79
2022-11-26T03:10:28.894Z,100069.38
2022-11-26T03:13:30.683Z,100079.40
2022-11-26T03:16:32.508Z,100084.71
2022-11-26T03:19:37.820Z,100090.55
2022-11-26T03:22:39.571Z,100096.21
2022-11-26T03:25:41.180Z,100097.41
2022-11-26T03:28:43.072Z,100095.69
2022-11-26T03:31:44.661Z,100096.38
2022-11-26T03:34:46.433Z,100096.14
2022-11-26T03:37:48.081Z,100102.47
2022-11-26T03:41:01.125Z,100097.09
2022-11-26T03:44:02.820Z,100102.02
2022-11-26T03:47:04.534Z,100102.55
2022-11-26T03:50:06.668Z,100102.55
2022-11-26T03:53:08.906Z,100099.92
2022-11-26T03:56:10.983Z,100098.97
2022-11-26T03:59:12.616Z,100100.29
2022-11-26T04:02:14.902Z,100104.72
2022-11-26T04:05:16.637Z,100102.12
2022-11-26T04:08:18.300Z,100098.47
2022-11-26T04:11:20.071Z,100101.74
2022-11-26T04:14:21.631Z,100099.55
2022-11-26T04:17:23.431Z,100104.45
2022-11-26T04:20:24.982Z,100105.77
2022-11-26T04:23:26.653Z,100106.17
2022-11-26T04:26:28.403Z,100109.19
2022-11-26T04:29:30.090Z,100111.73
2022-11-26T04:32:31.778Z,100111.20
2022-11-26T04:35:33.473Z,100113.19
2022-11-26T04:38:35.275Z,100113.95
2022-11-26T04:41:36.880Z,100116.31
2022-11-26T04:44:38.899Z,100119.68
2022-11-26T04:47:43.094Z,100122.01
2022-11-26T04:50:45.007Z,100127.71
2022-11-26T04:53:46.815Z,100126.68
2022-11-26T04:56:48.898Z,100128.77
2022-11-26T04:59:51.538Z,100135.40
2022-11-26T05:02:53.303Z,100135.49
2022-11-26T05:05:55.873Z,100144.05
2022-11-26T05:08:57.461Z,100144.17
2022-11-26T05:11:59.157Z,100146.45
2022-11-26T05:15:00.829Z,100152.43
2022-11-26T05:18:02.600Z,100151.63
2022-11-26T05:21:07.243Z,100151.67
2022-11-26T05:24:09.044Z,100156.36
2022-11-26T05:27:10.630Z,100158.28
2022-11-26T05:30:12.759Z,100158.65
2022-11-26T05:33:14.497Z,100159.98
2022-11-26T05:36:16.178Z,100165.34
2022-11-26T05:39:17.950Z,100167.46
2022-11-26T05:42:19.602Z,100169.50
2022-11-26T05:45:21.287Z,100170.61
2022-11-26T05:48:22.935Z,100175.23
2022-11-26T05:51:24.702Z,100180.61
2022-11-26T05:54:26.430Z,100180.92
2022-11-26T05:57:28.151Z,100184.30
2022-11-26T06:00:29.840Z,100188.38
2022-11-26T06:03:31.614Z,100188.71
2022-11-26T06:06:33.221Z,100196.07
2022-11-26T06:09:35.245Z,100197.72
2022-11-26T06:12:37.033Z,100201.20
2022-11-26T06:15:38.664Z,100200.53
2022-11-26T06:18:40.356Z,100203.24
2022-11-26T06:21:41.998Z,100211.98
2022-11-26T06:24:44.034Z,100215.03
2022-11-26T06:27:45.717Z,100218.98
2022-11-26T06:30:47.310Z,100224.33
2022-11-26T06:33:54.309Z,100224.58
2022-11-26T06:36:56.057Z,100226.16
2022-11-26T06:39:57.568Z,100223.84
2022-11-26T06:42:59.561Z,100225.95
2022-11-26T06:46:09.949Z,100223.56
2022-11-26T06:49:11.676Z,100225.05
2022-11-26T06:52:13.365Z,100228.95
2022-11-26T06:55:15.201Z,100230.51
2022-11-26T06:58:16.793Z,100232.51
2022-11-26T07:01:21.668Z,100229.58
2022-11-26T07:04:23.426Z,100229.58
2022-11-26T07:07:25.148Z,100236.14
2022-11-26T07:10:26.799Z,100240.58
2022-11-26T07:13:28.474Z,100242.27
2022-11-26T07:16:30.306Z,100241.48
2022-11-26T07:19:32.087Z,100243.88
2022-11-26T07:22:35.276Z,100243.05
2022-11-26T07:25:36.981Z,100243.58
2022-11-26T07:28:38.870Z,100249.67
2022-11-26T07:31:40.600Z,100249.14
2022-11-26T07:34:42.225Z,100250.13
2022-11-26T07:37:43.809Z,100247.68
2022-11-26T07:40:45.483Z,100249.82
2022-11-26T07:43:47.753Z,100251.88
2022-11-26T07:46:49.623Z,100253.75
2022-11-26T07:49:51.415Z,100258.39
2022-11-26T07:52:53.233Z,100259.67
2022-11-26T07:55:55.164Z,100260.27
2022-11-26T07:58:56.970Z,100258.36
2022-11-26T08:01:58.900Z,100261.49
2022-11-26T08:05:01.463Z,100268.23
2022-11-26T08:08:03.230Z,100274.87
2022-11-26T08:11:14.541Z,100288.61
2022-11-26T08:14:16.221Z,100293.50
2022-11-26T08:17:17.989Z,100294.92
2022-11-26T08:20:22.236Z,100289.18
2022-11-26T08:23:26.712Z,100288.80
2022-11-26T08:26:35.827Z,100289.35
2022-11-26T08:29:40.158Z,100291.68
2022-11-26T08:32:41.909Z,100301.74
2022-11-26T08:36:05.346Z,100309.17
2022-11-26T08:39:05.147Z,100305.76
2022-11-26T08:42:06.795Z,100312.30
2022-11-26T08:45:08.853Z,100318.02
2022-11-26T08:48:10.694Z,100318.86
2022-11-26T08:51:13.074Z,100316.55
2022-11-26T08:54:14.905Z,100315.62
2022-11-26T08:57:16.767Z,100317.41
2022-11-26T09:00:25.051Z,100316.35
2022-11-26T09:03:26.970Z,100316.23
2022-11-26T09:06:30.849Z,100317.55
2022-11-26T09:09:32.764Z,100317.20
2022-11-26T09:12:34.447Z,100319.36
2022-11-26T09:15:37.158Z,100320.59
2022-11-26T09:18:38.926Z,100319.78
2022-11-26T09:21:40.943Z,100320.75
2022-11-26T09:24:42.728Z,100319.23
2022-11-26T09:27:44.307Z,100321.02
2022-11-26T09:30:45.989Z,100319.66
2022-11-26T09:33:47.730Z,100321.64
2022-11-26T09:36:49.405Z,100320.41
2022-11-26T09:39:53.557Z,100320.42
2022-11-26T09:43:05.932Z,100320.05
2022-11-26T09:46:09.158Z,100320.38
2022-11-26T09:49:14.480Z,100315.50
2022-11-26T09:52:18.514Z,100322.40
2022-11-26T09:55:25.067Z,100321.27
2022-11-26T09:58:46.515Z,100321.40
2022-11-26T10:01:48.332Z,100319.68
2022-11-26T10:04:50.227Z,100325.35
2022-11-26T10:08:13.593Z,100323.19
2022-11-26T10:11:40.753Z,100328.11
2022-11-26T10:14:54.445Z,100328.48
2022-11-26T10:18:17.376Z,100328.54
2022-11-26T10:21:57.186Z,100330.35
2022-11-26T10:24:51.263Z,100334.86
2022-11-26T10:27:56.693Z,100338.13
2022-11-26T10:31:04.763Z,100338.73
2022-11-26T10:34:13.565Z,100340.33
2022-11-26T10:37:15.402Z,100337.42
2022-11-26T10:40:20.430Z,100336.94
2022-11-26T10:43:24.633Z,100334.75
2022-11-26T10:46:37.741Z,100335.72
2022-11-26T10:49:39.461Z,100332.59
2022-11-26T10:52:41.090Z,100334.19
2022-11-26T10:55:43.748Z,100331.77
2022-11-26T10:58:45.561Z,100334.03
2022-11-26T11:01:51.518Z,100338.77
2022-11-26T11:04:58.053Z,100338.25
2022-11-26T11:08:00.246Z,100340.67
2022-11-26T11:11:04.041Z,100339.92
2022-11-26T11:14:05.735Z,100340.84
2022-11-26T11:17:07.629Z,100338.45
2022-11-26T11:20:15.024Z,100337.23
2022-11-26T11:23:21.127Z,100335.13
2022-11-26T11:26:24.560Z,100335.49
2022-11-26T11:29:29.369Z,100330.89
2022-11-26T11:32:39.303Z,100330.09
2022-11-26T11:35:41.074Z,100329.98
2022-11-26T11:38:51.982Z,100331.69
2022-11-26T11:41:53.743Z,100332.58
2022-11-26T11:44:56.986Z,100335.12
2022-11-26T11:48:04.476Z,100337.89
2022-11-26T11:51:44.354Z,100337.84
2022-11-26T11:54:58.067Z,100341.90
2022-11-26T11:58:31.129Z,100346.45
2022-11-26T12:01:57.613Z,100346.08
2022-11-26T12:05:21.599Z,100353.38
2022-11-26T12:08:45.662Z,100350.14
2022-11-26T12:12:01.791Z,100351.89
2022-11-26T12:15:08.029Z,100350.51
2022-11-26T12:18:22.037Z,100350.63
2022-11-26T12:21:36.648Z,100353.29
2022-11-26T12:25:07.783Z,100354.34
2022-11-26T12:28:18.808Z,100352.16
2022-11-26T12:31:25.800Z,100354.69
2022-11-26T12:34:36.120Z,100354.36
2022-11-26T12:37:41.317Z,100356.43
2022-11-26T12:41:10.004Z,100360.65
2022-11-26T12:44:25.372Z,100359.85
2022-11-26T12:47:38.028Z,100354.97
2022-11-26T12:50:44.706Z,100354.06
2022-11-26T12:54:02.302Z,100353.63
2022-11-26T12:57:11.945Z,100356.14
2022-11-26T13:00:25.227Z,100359.21
2022-11-26T13:03:32.384Z,100361.00
2022-11-26T13:06:52.918Z,100360.89
2022-11-26T13:10:18.265Z,100357.75
2022-11-26T13:13:39.112Z,100359.46
2022-11-26T13:17:17.198Z,100360.23
2022-11-26T13:20:36.483Z,100363.63
2022-11-26T13:24:01.621Z,100363.53
2022-11-26T13:27:26.105Z,100361.41
2022-11-26T13:30:36.517Z,100363.03
2022-11-26T13:33:58.449Z,100365.05
2022-11-26T13:37:09.318Z,100365.97
2022-11-26T13:40:40.751Z,100371.27
2022-11-26T13:44:13.169Z,100370.21
2022-11-26T13:47:24.047Z,100371.04
2022-11-26T13:50:33.987Z,100372.10
2022-11-26T13:53:40.224Z,100373.84
2022-11-26T13:56:43.382Z,100376.08
2022-11-26T13:59:47.101Z,100375.95
2022-11-26T14:02:48.857Z,100378.24
2022-11-26T14:05:50.660Z,100380.80
2022-11-26T14:08:53.237Z,100379.98
2022-11-26T14:11:56.952Z,100380.74
2022-11-26T14:14:58.681Z,100383.27
2022-11-26T14:18:00.269Z,100382.05
2022-11-26T14:21:02.030Z,100388.00
2022-11-26T14:24:03.950Z,100386.39
2022-11-26T14:27:05.940Z,100387.91
2022-11-26T14:30:07.679Z,100393.20
2022-11-26T14:33:16.847Z,100396.65
2022-11-26T14:36:23.580Z,100396.41
2022-11-26T14:39:27.322Z,100399.48
2022-11-26T14:42:29.640Z,100399.64
2022-11-26T14:45:31.610Z,100400.02
2022-11-26T14:48:36.030Z,100400.18
2022-11-26T14:51:37.831Z,100397.82
2022-11-26T14:54:40.465Z,100399.35
2022-11-26T14:57:46.361Z,100400.13
2022-11-26T15:01:27.504Z,100403.34
2022-11-26T15:04:32.558Z,100398.89
2022-11-26T15:07:34.321Z,100400.57
2022-11-26T15:10:38.942Z,100400.85
2022-11-26T15:13:45.441Z,100405.52
2022-11-26T15:16:54.234Z,100411.05
2022-11-26T15:19:58.652Z,100412.13
2022-11-26T15:23:02.551Z,100410.91
2022-11-26T15:26:05.034Z,100411.36
2022-11-26T15:29:30.380Z,100414.42
2022-11-26T15:32:33.574Z,100412.83
2022-11-26T15:35:36.514Z,100417.88
2022-11-26T15:39:06.713Z,100421.67
2022-11-26T15:42:27.240Z,100423.52
2022-11-26T15:45:36.289Z,100426.62
2022-11-26T15:48:51.954Z,100430.04
2022-11-26T15:51:58.720Z,100434.47
2022-11-26T15:55:12.612Z,100434.84
2022-11-26T15:58:26.365Z,100437.25
2022-11-26T16:01:32.672Z,100436.63
2022-11-26T16:04:52.634Z,100442.43
2022-11-26T16:08:06.321Z,100443.90
2022-11-26T16:11:17.816Z,100447.29
2022-11-26T16:14:23.199Z,100449.86
2022-11-26T16:17:24.925Z,100452.86
2022-11-26T16:20:28.764Z,100451.60
2022-11-26T16:23:30.996Z,100454.77
2022-11-26T16:26:53.863Z,100454.55
2022-11-26T16:29:55.745Z,100457.33
2022-11-26T16:32:57.955Z,100464.17
2022-11-26T16:36:00.448Z,100461.36
2022-11-26T16:39:02.155Z,100459.44
2022-11-26T16:42:05.772Z,100465.02
2022-11-26T16:45:08.977Z,100464.88
2022-11-26T16:48:24.951Z,100466.80
2022-11-26T16:51:26.967Z,100468.36
2022-11-26T16:54:28.681Z,100469.44
2022-11-26T16:57:30.539Z,100468.26
2022-11-26T17:00:32.895Z,100473.89
2022-11-26T17:03:34.813Z,100477.63
2022-11-26T17:06:36.676Z,100481.70
2022-11-26T17:09:38.414Z,100482.80
2022-11-26T17:12:41.017Z,100490.20
2022-11-26T17:15:43.639Z,100492.08
2022-11-26T17:18:45.601Z,100494.70
2022-11-26T17:21:47.252Z,100498.25
2022-11-26T17:24:48.891Z,100501.82
2022-11-26T17:27:50.622Z,100503.46
2022-11-26T17:30:52.745Z,100506.84
2022-11-26T17:33:54.410Z,100508.52
2022-11-26T17:36:56.924Z,100507.48
2022-11-26T17:39:58.838Z,100511.20
2022-11-26T17:43:00.561Z,100514.90
2022-11-26T17:46:02.676Z,100515.98
2022-11-26T17:49:04.601Z,100516.91
2022-11-26T17:52:06.176Z,100518.86
2022-11-26T17:55:07.976Z,100523.50
2022-11-26T17:58:11.376Z,100527.51
2022-11-26T18:01:14.815Z,100530.17
2022-11-26T18:04:16.756Z,100530.94
2022-11-26T18:07:19.746Z,100529.68
2022-11-26T18:10:22.916Z,100533.02
2022-11-26T18:13:24.688Z,100533.17
2022-11-26T18:16:26.627Z,100531.09
2022-11-26T18:19:28.436Z,100535.58
2022-11-26T18:22:30.455Z,100537.30
2022-11-26T18:25:34.081Z,100536.33
2022-11-26T18:28:35.841Z,100541.19
2022-11-26T18:31:39.847Z,100538.84
2022-11-26T18:34:41.984Z,100543.67
2022-11-26T18:37:43.827Z,100548.77
2022-11-26T18:40:45.598Z,100552.64
2022-11-26T18:43:47.512Z,100558.38
2022-11-26T18:46:49.341Z,100562.36
2022-11-26T18:49:51.341Z,100559.28
2022-11-26T18:52:55.282Z,100561.35
2022-11-26T18:55:57.860Z,100560.27
2022-11-26T18:58:59.544Z,100562.84
2022-11-26T19:02:01.467Z,100561.16
2022-11-26T19:05:04.028Z,100566.13
2022-11-26T19:08:06.264Z,100572.23
2022-11-26T19:11:12.747Z,100578.14
2022-11-26T19:14:15.798Z,100584.42
2022-11-26T19:17:17.770Z,100586.16
2022-11-26T19:20:19.442Z,100589.52
2022-11-26T19:23:24.461Z,100587.80
2022-11-26T19:26:26.649Z,100592.77
2022-11-26T19:29:28.349Z,100601.19
2022-11-26T19:32:29.962Z,100610.45
2022-11-26T19:35:31.778Z,100610.95
2022-11-26T19:38:33.552Z,100611.71
2022-11-26T19:41:35.337Z,100611.98
2022-11-26T19:44:37.092Z,100617.38
2022-11-26T19:47:38.909Z,100622.00
2022-11-26T19:50:40.571Z,100626.89
2022-11-26T19:53:42.830Z,100635.98
2022-11-26T19:56:46.084Z,100643.85
2022-11-26T19:59:47.765Z,100648.80
2022-11-26T20:02:49.499Z,100646.58
2022-11-26T20:05:52.205Z,100651.64
2022-11-26T20:08:54.481Z,100655.83
2022-11-26T20:11:56.204Z,100662.23
2022-11-26T20:14:57.802Z,100663.09
2022-11-26T20:17:59.625Z,100665.08
2022-11-26T20:21:03.287Z,100664.33
2022-11-26T20:24:11.272Z,100661.17
2022-11-26T20:27:12.918Z,100660.35
2022-11-26T20:30:14.745Z,100660.31
2022-11-26T20:33:18.874Z,100661.61
2022-11-26T20:36:23.238Z,100669.46
2022-11-26T20:39:25.196Z,100677.77
2022-11-26T20:42:27.442Z,100685.55
2022-11-26T20:45:29.205Z,100689.83
2022-11-26T20:48:32.013Z,100688.90
2022-11-26T20:51:34.096Z,100692.51
2022-11-26T20:54:35.809Z,100697.90
2022-11-26T20:57:37.618Z,100694.55
2022-11-26T21:00:41.199Z,100694.59
2022-11-26T21:03:44.193Z,100698.05
2022-11-26T21:06:45.837Z,100693.92
2022-11-26T21:09:47.833Z,100692.58
2022-11-26T21:12:49.525Z,100693.44
2022-11-26T21:15:51.292Z,100692.46
2022-11-26T21:18:54.376Z,100690.27
2022-11-26T21:21:56.029Z,100690.62
2022-11-26T21:24:57.701Z,100699.16
2022-11-26T21:27:59.534Z,100696.70
2022-11-26T21:31:15.013Z,100695.67
2022-11-26T21:34:17.225Z,100695.66
2022-11-26T21:37:20.793Z,100698.18
2022-11-26T21:40:22.547Z,100700.12
2022-11-26T21:43:24.147Z,100700.08
2022-11-26T21:46:26.994Z,100703.27
2022-11-26T21:49:30.996Z,100705.80
2022-11-26T21:52:33.834Z,100712.17
2022-11-26T21:55:35.636Z,100719.68
2022-11-26T21:58:37.365Z,100720.24
2022-11-26T22:01:39.174Z,100729.97
2022-11-26T22:04:40.954Z,100727.77
2022-11-26T22:07:42.871Z,100729.52
2022-11-26T22:10:44.622Z,100732.90
2022-11-26T22:13:46.283Z,100732.86
2022-11-26T22:16:51.606Z,100730.83
2022-11-26T22:19:53.372Z,100728.91
2022-11-26T22:22:55.201Z,100731.52
2022-11-26T22:25:56.909Z,100738.33
2022-11-26T22:28:58.862Z,100743.63
2022-11-26T22:32:00.641Z,100748.35
2022-11-26T22:35:02.263Z,100752.55
2022-11-26T22:38:04.815Z,100750.95
2022-11-26T22:41:08.914Z,100750.48
2022-11-26T22:44:10.979Z,100759.36
2022-11-26T22:47:12.635Z,100754.39
2022-11-26T22:50:14.384Z,100751.40
2022-11-26T22:53:15.903Z,100751.98
2022-11-26T22:56:18.968Z,100755.79
2022-11-26T22:59:20.813Z,100756.83
2022-11-26T23:02:22.667Z,100758.98
2022-11-26T23:05:24.414Z,100763.42
2022-11-26T23:08:26.172Z,100760.71
2022-11-26T23:11:29.078Z,100759.80
2022-11-26T23:14:30.776Z,100761.85
2022-11-26T23:17:32.458Z,100765.20
2022-11-26T23:20:34.243Z,100761.13
2022-11-26T23:23:36.404Z,100760.38
2022-11-26T23:26:39.581Z,100761.15
2022-11-26T23:29:41.910Z,100757.50
2022-11-26T23:32:43.946Z,100756.78
2022-11-26T23:35:45.557Z,100758.53
2022-11-26T23:38:47.904Z,100759.62
2022-11-26T23:41:49.654Z,100756.41
2022-11-26T23:44:51.407Z,100759.05
2022-11-26T23:47:53.009Z,100758.45
2022-11-26T23:50:55.001Z,100759.73
2022-11-26T23:53:57.070Z,100762.08
2022-11-26T23:56:58.921Z,100763.75
